sensor_id;sensor_type;location;lat;lon;timestamp;P1;durP1;ratioP1;P2;durP2;ratioP2
16957;SDS011;8595;52.542;11.974;2024-02-23T00:01:07;1.85;;;1.65;;
16957;SDS011;8595;52.542;11.974;2024-02-23T00:03:37;3.53;;;1.90;;
16957;SDS011;8595;52.542;11.974;2024-02-23T00:06:04;2.45;;;1.90;;
16957;SDS011;8595;52.542;11.974;2024-02-23T00:08:30;2.58;;;2.03;;
16957;SDS011;8595;52.542;11.974;2024-02-23T00:10:57;1.90;;;1.80;;
16957;SDS011;8595;52.542;11.974;2024-02-23T00:13:23;1.73;;;1.45;;
16957;SDS011;8595;52.542;11.974;2024-02-23T00:15:50;2.70;;;1.58;;
16957;SDS011;8595;52.542;11.974;2024-02-23T00:18:17;2.35;;;1.50;;
16957;SDS011;8595;52.542;11.974;2024-02-23T00:20:46;1.33;;;1.20;;
16957;SDS011;8595;52.542;11.974;2024-02-23T00:23:13;1.10;;;1.00;;
16957;SDS011;8595;52.542;11.974;2024-02-23T00:25:40;0.98;;;0.98;;
16957;SDS011;8595;52.542;11.974;2024-02-23T00:28:06;0.95;;;0.95;;
16957;SDS011;8595;52.542;11.974;2024-02-23T00:30:34;1.40;;;1.10;;
16957;SDS011;8595;52.542;11.974;2024-02-23T00:33:00;1.92;;;1.25;;
16957;SDS011;8595;52.542;11.974;2024-02-23T00:35:27;3.28;;;1.20;;
16957;SDS011;8595;52.542;11.974;2024-02-23T00:37:55;4.40;;;1.08;;
16957;SDS011;8595;52.542;11.974;2024-02-23T00:40:22;2.63;;;1.40;;
16957;SDS011;8595;52.542;11.974;2024-02-23T00:42:49;1.50;;;1.40;;
16957;SDS011;8595;52.542;11.974;2024-02-23T00:45:15;2.15;;;1.20;;
16957;SDS011;8595;52.542;11.974;2024-02-23T00:47:42;2.97;;;1.30;;
16957;SDS011;8595;52.542;11.974;2024-02-23T00:50:11;2.78;;;1.40;;
16957;SDS011;8595;52.542;11.974;2024-02-23T00:52:37;2.53;;;1.13;;
16957;SDS011;8595;52.542;11.974;2024-02-23T00:55:06;2.30;;;1.10;;
16957;SDS011;8595;52.542;11.974;2024-02-23T00:57:33;2.85;;;1.17;;
16957;SDS011;8595;52.542;11.974;2024-02-23T01:00:00;1.15;;;1.05;;
16957;SDS011;8595;52.542;11.974;2024-02-23T01:02:27;4.22;;;1.05;;
16957;SDS011;8595;52.542;11.974;2024-02-23T01:04:54;1.27;;;1.10;;
16957;SDS011;8595;52.542;11.974;2024-02-23T01:07:23;1.17;;;1.08;;
16957;SDS011;8595;52.542;11.974;2024-02-23T01:09:50;2.28;;;1.42;;
16957;SDS011;8595;52.542;11.974;2024-02-23T01:12:18;2.42;;;1.30;;
16957;SDS011;8595;52.542;11.974;2024-02-23T01:14:45;7.38;;;2.65;;
16957;SDS011;8595;52.542;11.974;2024-02-23T01:17:13;4.10;;;1.23;;
16957;SDS011;8595;52.542;11.974;2024-02-23T01:19:40;1.95;;;1.40;;
16957;SDS011;8595;52.542;11.974;2024-02-23T01:22:07;3.22;;;1.05;;
16957;SDS011;8595;52.542;11.974;2024-02-23T01:24:34;2.88;;;1.52;;
16957;SDS011;8595;52.542;11.974;2024-02-23T01:27:01;2.83;;;1.27;;
16957;SDS011;8595;52.542;11.974;2024-02-23T01:29:29;3.30;;;1.10;;
16957;SDS011;8595;52.542;11.974;2024-02-23T01:31:55;3.33;;;1.13;;
16957;SDS011;8595;52.542;11.974;2024-02-23T01:34:22;1.73;;;1.17;;
16957;SDS011;8595;52.542;11.974;2024-02-23T01:36:49;1.17;;;1.00;;
16957;SDS011;8595;52.542;11.974;2024-02-23T01:39:15;2.05;;;1.20;;
16957;SDS011;8595;52.542;11.974;2024-02-23T01:41:42;1.92;;;1.38;;
16957;SDS011;8595;52.542;11.974;2024-02-23T01:44:09;3.50;;;1.23;;
16957;SDS011;8595;52.542;11.974;2024-02-23T01:46:37;1.88;;;1.10;;
16957;SDS011;8595;52.542;11.974;2024-02-23T01:49:05;2.40;;;1.17;;
16957;SDS011;8595;52.542;11.974;2024-02-23T01:51:34;1.33;;;1.23;;
16957;SDS011;8595;52.542;11.974;2024-02-23T01:54:01;1.10;;;1.00;;
16957;SDS011;8595;52.542;11.974;2024-02-23T01:56:28;1.33;;;1.00;;
16957;SDS011;8595;52.542;11.974;2024-02-23T01:58:55;4.38;;;1.52;;
16957;SDS011;8595;52.542;11.974;2024-02-23T02:01:22;4.20;;;1.40;;
16957;SDS011;8595;52.542;11.974;2024-02-23T02:03:51;3.22;;;1.13;;
16957;SDS011;8595;52.542;11.974;2024-02-23T02:06:17;1.70;;;1.10;;
16957;SDS011;8595;52.542;11.974;2024-02-23T02:08:44;3.00;;;1.38;;
16957;SDS011;8595;52.542;11.974;2024-02-23T02:11:12;2.08;;;1.27;;
16957;SDS011;8595;52.542;11.974;2024-02-23T02:13:40;1.38;;;1.15;;
16957;SDS011;8595;52.542;11.974;2024-02-23T02:16:06;3.20;;;1.20;;
16957;SDS011;8595;52.542;11.974;2024-02-23T02:18:33;3.72;;;1.10;;
16957;SDS011;8595;52.542;11.974;2024-02-23T02:21:01;1.83;;;1.20;;
16957;SDS011;8595;52.542;11.974;2024-02-23T02:23:28;2.50;;;1.20;;
16957;SDS011;8595;52.542;11.974;2024-02-23T02:25:55;1.38;;;1.10;;
16957;SDS011;8595;52.542;11.974;2024-02-23T02:28:22;4.15;;;1.40;;
16957;SDS011;8595;52.542;11.974;2024-02-23T02:30:50;2.05;;;1.02;;
16957;SDS011;8595;52.542;11.974;2024-02-23T02:33:17;1.00;;;1.00;;
16957;SDS011;8595;52.542;11.974;2024-02-23T02:35:44;3.85;;;1.40;;
16957;SDS011;8595;52.542;11.974;2024-02-23T02:38:12;9.43;;;1.33;;
16957;SDS011;8595;52.542;11.974;2024-02-23T02:40:38;1.60;;;0.90;;
16957;SDS011;8595;52.542;11.974;2024-02-23T02:43:05;1.25;;;0.82;;
16957;SDS011;8595;52.542;11.974;2024-02-23T02:45:32;2.15;;;1.08;;
16957;SDS011;8595;52.542;11.974;2024-02-23T02:48:00;1.07;;;0.97;;
16957;SDS011;8595;52.542;11.974;2024-02-23T02:50:26;2.20;;;1.00;;
16957;SDS011;8595;52.542;11.974;2024-02-23T02:52:53;2.83;;;1.00;;
16957;SDS011;8595;52.542;11.974;2024-02-23T02:55:21;1.77;;;1.15;;
16957;SDS011;8595;52.542;11.974;2024-02-23T02:57:48;2.67;;;1.10;;
16957;SDS011;8595;52.542;11.974;2024-02-23T03:00:14;1.73;;;1.00;;
16957;SDS011;8595;52.542;11.974;2024-02-23T03:02:41;4.97;;;1.30;;
16957;SDS011;8595;52.542;11.974;2024-02-23T03:05:08;2.80;;;1.20;;
16957;SDS011;8595;52.542;11.974;2024-02-23T03:07:34;3.20;;;1.00;;
16957;SDS011;8595;52.542;11.974;2024-02-23T03:10:01;3.80;;;1.08;;
16957;SDS011;8595;52.542;11.974;2024-02-23T03:12:29;3.38;;;1.13;;
16957;SDS011;8595;52.542;11.974;2024-02-23T03:14:55;1.75;;;1.00;;
16957;SDS011;8595;52.542;11.974;2024-02-23T03:17:22;3.10;;;1.40;;
16957;SDS011;8595;52.542;11.974;2024-02-23T03:19:49;1.60;;;1.02;;
16957;SDS011;8595;52.542;11.974;2024-02-23T03:22:16;3.10;;;1.20;;
16957;SDS011;8595;52.542;11.974;2024-02-23T03:24:42;1.83;;;1.00;;
16957;SDS011;8595;52.542;11.974;2024-02-23T03:27:09;1.45;;;1.13;;
16957;SDS011;8595;52.542;11.974;2024-02-23T03:29:38;1.70;;;0.90;;
16957;SDS011;8595;52.542;11.974;2024-02-23T03:32:05;2.22;;;0.88;;
16957;SDS011;8595;52.542;11.974;2024-02-23T03:34:32;3.42;;;1.00;;
16957;SDS011;8595;52.542;11.974;2024-02-23T03:36:59;1.38;;;1.08;;
16957;SDS011;8595;52.542;11.974;2024-02-23T03:39:27;2.47;;;1.13;;
16957;SDS011;8595;52.542;11.974;2024-02-23T03:41:54;2.17;;;1.00;;
16957;SDS011;8595;52.542;11.974;2024-02-23T03:44:21;1.02;;;1.00;;
16957;SDS011;8595;52.542;11.974;2024-02-23T03:46:48;1.65;;;1.15;;
16957;SDS011;8595;52.542;11.974;2024-02-23T03:49:15;0.85;;;0.80;;
16957;SDS011;8595;52.542;11.974;2024-02-23T03:51:42;1.00;;;0.90;;
16957;SDS011;8595;52.542;11.974;2024-02-23T03:54:08;0.80;;;0.80;;
16957;SDS011;8595;52.542;11.974;2024-02-23T03:56:38;1.00;;;1.00;;
16957;SDS011;8595;52.542;11.974;2024-02-23T03:59:06;0.80;;;0.80;;
16957;SDS011;8595;52.542;11.974;2024-02-23T04:01:34;0.90;;;0.90;;
16957;SDS011;8595;52.542;11.974;2024-02-23T04:04:02;1.10;;;1.10;;
16957;SDS011;8595;52.542;11.974;2024-02-23T04:06:29;0.80;;;0.80;;
16957;SDS011;8595;52.542;11.974;2024-02-23T04:08:56;1.10;;;1.10;;
16957;SDS011;8595;52.542;11.974;2024-02-23T04:11:22;0.77;;;0.77;;
16957;SDS011;8595;52.542;11.974;2024-02-23T04:13:49;1.17;;;1.07;;
16957;SDS011;8595;52.542;11.974;2024-02-23T04:16:15;1.00;;;1.00;;
16957;SDS011;8595;52.542;11.974;2024-02-23T04:18:42;1.47;;;1.10;;
16957;SDS011;8595;52.542;11.974;2024-02-23T04:21:10;1.93;;;1.20;;
16957;SDS011;8595;52.542;11.974;2024-02-23T04:23:36;1.00;;;1.00;;
16957;SDS011;8595;52.542;11.974;2024-02-23T04:26:03;1.67;;;1.50;;
16957;SDS011;8595;52.542;11.974;2024-02-23T04:28:30;1.43;;;1.33;;
16957;SDS011;8595;52.542;11.974;2024-02-23T04:30:58;2.30;;;1.60;;
16957;SDS011;8595;52.542;11.974;2024-02-23T04:33:25;3.23;;;1.77;;
16957;SDS011;8595;52.542;11.974;2024-02-23T04:35:52;1.80;;;1.50;;
16957;SDS011;8595;52.542;11.974;2024-02-23T04:38:20;14.93;;;1.27;;
16957;SDS011;8595;52.542;11.974;2024-02-23T04:40:47;1.13;;;1.13;;
16957;SDS011;8595;52.542;11.974;2024-02-23T04:43:13;1.37;;;1.27;;
16957;SDS011;8595;52.542;11.974;2024-02-23T04:45:40;1.80;;;1.57;;
16957;SDS011;8595;52.542;11.974;2024-02-23T04:48:07;1.10;;;1.10;;
16957;SDS011;8595;52.542;11.974;2024-02-23T04:50:34;1.50;;;1.40;;
16957;SDS011;8595;52.542;11.974;2024-02-23T04:53:00;4.50;;;2.17;;
16957;SDS011;8595;52.542;11.974;2024-02-23T04:55:28;1.40;;;1.30;;
16957;SDS011;8595;52.542;11.974;2024-02-23T04:57:55;1.40;;;1.30;;
16957;SDS011;8595;52.542;11.974;2024-02-23T05:00:21;1.57;;;1.47;;
16957;SDS011;8595;52.542;11.974;2024-02-23T05:02:48;1.37;;;1.27;;
16957;SDS011;8595;52.542;11.974;2024-02-23T05:05:15;1.30;;;1.20;;
16957;SDS011;8595;52.542;11.974;2024-02-23T05:07:41;3.00;;;2.10;;
16957;SDS011;8595;52.542;11.974;2024-02-23T05:10:09;3.53;;;1.63;;
16957;SDS011;8595;52.542;11.974;2024-02-23T05:12:37;1.90;;;1.70;;
16957;SDS011;8595;52.542;11.974;2024-02-23T05:15:04;1.83;;;1.40;;
16957;SDS011;8595;52.542;11.974;2024-02-23T05:17:30;2.10;;;1.90;;
16957;SDS011;8595;52.542;11.974;2024-02-23T05:19:56;1.90;;;1.70;;
16957;SDS011;8595;52.542;11.974;2024-02-23T05:22:23;2.63;;;1.90;;
16957;SDS011;8595;52.542;11.974;2024-02-23T05:24:50;5.80;;;2.80;;
16957;SDS011;8595;52.542;11.974;2024-02-23T05:27:16;2.17;;;1.53;;
16957;SDS011;8595;52.542;11.974;2024-02-23T05:29:44;1.40;;;1.30;;
16957;SDS011;8595;52.542;11.974;2024-02-23T05:32:11;3.40;;;2.10;;
16957;SDS011;8595;52.542;11.974;2024-02-23T05:34:37;2.90;;;1.70;;
16957;SDS011;8595;52.542;11.974;2024-02-23T05:37:04;1.87;;;1.60;;
16957;SDS011;8595;52.542;11.974;2024-02-23T05:39:31;4.03;;;1.63;;
16957;SDS011;8595;52.542;11.974;2024-02-23T05:41:57;1.47;;;1.37;;
16957;SDS011;8595;52.542;11.974;2024-02-23T05:44:24;2.30;;;1.43;;
16957;SDS011;8595;52.542;11.974;2024-02-23T05:46:52;3.57;;;2.07;;
16957;SDS011;8595;52.542;11.974;2024-02-23T05:49:19;5.13;;;1.80;;
16957;SDS011;8595;52.542;11.974;2024-02-23T05:51:45;2.00;;;1.23;;
16957;SDS011;8595;52.542;11.974;2024-02-23T05:54:12;2.27;;;1.90;;
16957;SDS011;8595;52.542;11.974;2024-02-23T05:56:39;3.17;;;1.70;;
16957;SDS011;8595;52.542;11.974;2024-02-23T05:59:05;1.57;;;1.40;;
16957;SDS011;8595;52.542;11.974;2024-02-23T06:01:32;2.43;;;1.67;;
16957;SDS011;8595;52.542;11.974;2024-02-23T06:04:00;2.13;;;1.53;;
16957;SDS011;8595;52.542;11.974;2024-02-23T06:06:27;4.97;;;1.53;;
16957;SDS011;8595;52.542;11.974;2024-02-23T06:08:54;1.50;;;1.40;;
16957;SDS011;8595;52.542;11.974;2024-02-23T06:11:21;2.83;;;1.67;;
16957;SDS011;8595;52.542;11.974;2024-02-23T06:13:47;2.43;;;1.50;;
16957;SDS011;8595;52.542;11.974;2024-02-23T06:16:14;1.50;;;1.40;;
16957;SDS011;8595;52.542;11.974;2024-02-23T06:18:41;1.80;;;1.63;;
16957;SDS011;8595;52.542;11.974;2024-02-23T06:21:12;2.37;;;1.60;;
16957;SDS011;8595;52.542;11.974;2024-02-23T06:23:40;1.90;;;1.33;;
16957;SDS011;8595;52.542;11.974;2024-02-23T06:26:06;1.93;;;1.80;;
16957;SDS011;8595;52.542;11.974;2024-02-23T06:28:33;1.63;;;1.53;;
16957;SDS011;8595;52.542;11.974;2024-02-23T06:31:02;5.30;;;1.50;;
16957;SDS011;8595;52.542;11.974;2024-02-23T06:33:29;6.17;;;1.60;;
16957;SDS011;8595;52.542;11.974;2024-02-23T06:35:56;1.77;;;1.40;;
16957;SDS011;8595;52.542;11.974;2024-02-23T06:38:24;3.57;;;1.53;;
16957;SDS011;8595;52.542;11.974;2024-02-23T06:40:51;1.47;;;1.37;;
16957;SDS011;8595;52.542;11.974;2024-02-23T06:43:18;3.87;;;2.30;;
16957;SDS011;8595;52.542;11.974;2024-02-23T06:45:44;7.27;;;3.87;;
16957;SDS011;8595;52.542;11.974;2024-02-23T06:48:11;11.13;;;6.83;;
16957;SDS011;8595;52.542;11.974;2024-02-23T06:50:38;18.20;;;10.43;;
16957;SDS011;8595;52.542;11.974;2024-02-23T06:53:04;7.90;;;4.70;;
16957;SDS011;8595;52.542;11.974;2024-02-23T06:55:33;3.97;;;2.10;;
16957;SDS011;8595;52.542;11.974;2024-02-23T06:58:01;5.53;;;2.50;;
16957;SDS011;8595;52.542;11.974;2024-02-23T07:00:29;1.77;;;1.67;;
16957;SDS011;8595;52.542;11.974;2024-02-23T07:02:56;2.17;;;1.40;;
16957;SDS011;8595;52.542;11.974;2024-02-23T07:05:24;2.13;;;1.70;;
16957;SDS011;8595;52.542;11.974;2024-02-23T07:07:50;1.43;;;1.30;;
16957;SDS011;8595;52.542;11.974;2024-02-23T07:10:17;4.43;;;1.50;;
16957;SDS011;8595;52.542;11.974;2024-02-23T07:12:46;4.50;;;1.57;;
16957;SDS011;8595;52.542;11.974;2024-02-23T07:15:13;2.20;;;1.40;;
16957;SDS011;8595;52.542;11.974;2024-02-23T07:17:40;1.70;;;1.60;;
16957;SDS011;8595;52.542;11.974;2024-02-23T07:20:07;2.70;;;1.30;;
16957;SDS011;8595;52.542;11.974;2024-02-23T07:22:35;2.10;;;1.37;;
16957;SDS011;8595;52.542;11.974;2024-02-23T07:25:02;2.30;;;1.83;;
16957;SDS011;8595;52.542;11.974;2024-02-23T07:27:29;2.70;;;1.50;;
16957;SDS011;8595;52.542;11.974;2024-02-23T07:29:57;2.57;;;1.40;;
16957;SDS011;8595;52.542;11.974;2024-02-23T07:32:24;2.97;;;1.40;;
16957;SDS011;8595;52.542;11.974;2024-02-23T07:34:51;2.03;;;1.37;;
16957;SDS011;8595;52.542;11.974;2024-02-23T07:37:17;5.55;;;1.73;;
16957;SDS011;8595;52.542;11.974;2024-02-23T07:39:44;2.28;;;1.45;;
16957;SDS011;8595;52.542;11.974;2024-02-23T07:42:11;1.60;;;1.50;;
16957;SDS011;8595;52.542;11.974;2024-02-23T07:44:39;1.87;;;1.30;;
16957;SDS011;8595;52.542;11.974;2024-02-23T07:47:07;1.63;;;1.30;;
16957;SDS011;8595;52.542;11.974;2024-02-23T07:49:34;3.33;;;1.40;;
16957;SDS011;8595;52.542;11.974;2024-02-23T07:52:00;2.97;;;1.50;;
16957;SDS011;8595;52.542;11.974;2024-02-23T07:54:27;2.25;;;1.20;;
16957;SDS011;8595;52.542;11.974;2024-02-23T07:56:53;1.83;;;1.50;;
16957;SDS011;8595;52.542;11.974;2024-02-23T07:59:22;4.03;;;1.45;;
16957;SDS011;8595;52.542;11.974;2024-02-23T08:01:49;3.05;;;1.50;;
16957;SDS011;8595;52.542;11.974;2024-02-23T08:04:17;4.22;;;1.65;;
16957;SDS011;8595;52.542;11.974;2024-02-23T08:06:44;1.95;;;1.50;;
16957;SDS011;8595;52.542;11.974;2024-02-23T08:09:11;2.60;;;1.30;;
16957;SDS011;8595;52.542;11.974;2024-02-23T08:11:38;1.83;;;1.37;;
16957;SDS011;8595;52.542;11.974;2024-02-23T08:14:04;2.90;;;1.50;;
16957;SDS011;8595;52.542;11.974;2024-02-23T08:16:31;3.55;;;1.30;;
16957;SDS011;8595;52.542;11.974;2024-02-23T08:18:58;1.98;;;1.42;;
16957;SDS011;8595;52.542;11.974;2024-02-23T08:21:26;1.40;;;1.30;;
16957;SDS011;8595;52.542;11.974;2024-02-23T08:23:53;4.00;;;1.50;;
16957;SDS011;8595;52.542;11.974;2024-02-23T08:26:20;1.38;;;1.27;;
16957;SDS011;8595;52.542;11.974;2024-02-23T08:28:47;2.40;;;1.30;;
16957;SDS011;8595;52.542;11.974;2024-02-23T08:31:13;2.53;;;1.70;;
16957;SDS011;8595;52.542;11.974;2024-02-23T08:33:41;1.63;;;1.20;;
16957;SDS011;8595;52.542;11.974;2024-02-23T08:36:08;1.77;;;1.20;;
16957;SDS011;8595;52.542;11.974;2024-02-23T08:38:37;5.30;;;1.30;;
16957;SDS011;8595;52.542;11.974;2024-02-23T08:41:04;3.93;;;1.90;;
16957;SDS011;8595;52.542;11.974;2024-02-23T08:43:30;2.43;;;1.17;;
16957;SDS011;8595;52.542;11.974;2024-02-23T08:45:57;2.77;;;1.57;;
16957;SDS011;8595;52.542;11.974;2024-02-23T08:48:23;4.68;;;2.20;;
16957;SDS011;8595;52.542;11.974;2024-02-23T08:50:50;1.40;;;1.20;;
16957;SDS011;8595;52.542;11.974;2024-02-23T08:53:16;2.20;;;1.48;;
16957;SDS011;8595;52.542;11.974;2024-02-23T08:58:29;1.73;;;1.52;;
16957;SDS011;8595;52.542;11.974;2024-02-23T09:00:56;2.53;;;1.33;;
16957;SDS011;8595;52.542;11.974;2024-02-23T09:03:22;3.35;;;1.70;;
16957;SDS011;8595;52.542;11.974;2024-02-23T09:05:49;1.50;;;1.35;;
16957;SDS011;8595;52.542;11.974;2024-02-23T09:08:15;1.63;;;1.40;;
16957;SDS011;8595;52.542;11.974;2024-02-23T09:10:42;1.85;;;1.48;;
16957;SDS011;8595;52.542;11.974;2024-02-23T09:13:08;2.90;;;1.95;;
16957;SDS011;8595;52.542;11.974;2024-02-23T09:15:36;3.60;;;1.40;;
16957;SDS011;8595;52.542;11.974;2024-02-23T09:18:03;3.22;;;1.60;;
16957;SDS011;8595;52.542;11.974;2024-02-23T09:20:30;3.95;;;1.80;;
16957;SDS011;8595;52.542;11.974;2024-02-23T09:22:56;11.10;;;1.88;;
16957;SDS011;8595;52.542;11.974;2024-02-23T09:25:23;4.20;;;1.92;;
16957;SDS011;8595;52.542;11.974;2024-02-23T09:27:50;2.85;;;1.50;;
16957;SDS011;8595;52.542;11.974;2024-02-23T09:30:17;2.33;;;1.40;;
16957;SDS011;8595;52.542;11.974;2024-02-23T09:32:45;2.33;;;1.63;;
16957;SDS011;8595;52.542;11.974;2024-02-23T09:35:12;2.78;;;1.85;;
16957;SDS011;8595;52.542;11.974;2024-02-23T09:37:39;1.75;;;1.45;;
16957;SDS011;8595;52.542;11.974;2024-02-23T09:40:06;2.15;;;1.40;;
16957;SDS011;8595;52.542;11.974;2024-02-23T09:42:34;3.35;;;1.35;;
16957;SDS011;8595;52.542;11.974;2024-02-23T09:45:03;2.65;;;1.60;;
16957;SDS011;8595;52.542;11.974;2024-02-23T09:47:32;2.38;;;1.58;;
16957;SDS011;8595;52.542;11.974;2024-02-23T09:50:00;2.08;;;1.33;;
16957;SDS011;8595;52.542;11.974;2024-02-23T09:52:30;1.85;;;1.38;;
16957;SDS011;8595;52.542;11.974;2024-02-23T09:54:58;3.38;;;1.30;;
16957;SDS011;8595;52.542;11.974;2024-02-23T09:57:25;2.22;;;1.42;;
16957;SDS011;8595;52.542;11.974;2024-02-23T09:59:53;3.20;;;1.33;;
16957;SDS011;8595;52.542;11.974;2024-02-23T10:02:20;4.68;;;2.00;;
16957;SDS011;8595;52.542;11.974;2024-02-23T10:04:47;7.22;;;3.13;;
16957;SDS011;8595;52.542;11.974;2024-02-23T10:07:17;2.58;;;2.05;;
16957;SDS011;8595;52.542;11.974;2024-02-23T10:09:42;3.05;;;2.00;;
16957;SDS011;8595;52.542;11.974;2024-02-23T10:12:09;4.13;;;2.60;;
16957;SDS011;8595;52.542;11.974;2024-02-23T10:14:36;4.72;;;2.30;;
16957;SDS011;8595;52.542;11.974;2024-02-23T10:17:02;2.88;;;1.38;;
16957;SDS011;8595;52.542;11.974;2024-02-23T10:19:31;3.10;;;1.73;;
16957;SDS011;8595;52.542;11.974;2024-02-23T10:21:59;2.60;;;1.38;;
16957;SDS011;8595;52.542;11.974;2024-02-23T10:24:27;2.80;;;1.40;;
16957;SDS011;8595;52.542;11.974;2024-02-23T10:26:54;3.20;;;1.40;;
16957;SDS011;8595;52.542;11.974;2024-02-23T10:29:21;3.90;;;1.50;;
16957;SDS011;8595;52.542;11.974;2024-02-23T10:31:47;4.03;;;2.00;;
16957;SDS011;8595;52.542;11.974;2024-02-23T10:34:17;3.92;;;1.73;;
16957;SDS011;8595;52.542;11.974;2024-02-23T10:36:45;3.70;;;1.60;;
16957;SDS011;8595;52.542;11.974;2024-02-23T10:39:15;3.30;;;1.60;;
16957;SDS011;8595;52.542;11.974;2024-02-23T10:41:46;2.08;;;1.38;;
16957;SDS011;8595;52.542;11.974;2024-02-23T10:44:16;2.08;;;1.55;;
16957;SDS011;8595;52.542;11.974;2024-02-23T10:46:44;2.92;;;1.80;;
16957;SDS011;8595;52.542;11.974;2024-02-23T10:49:12;6.90;;;1.73;;
16957;SDS011;8595;52.542;11.974;2024-02-23T10:51:41;1.88;;;1.60;;
16957;SDS011;8595;52.542;11.974;2024-02-23T10:54:09;3.05;;;1.67;;
16957;SDS011;8595;52.542;11.974;2024-02-23T10:56:37;2.40;;;1.55;;
16957;SDS011;8595;52.542;11.974;2024-02-23T10:59:06;3.60;;;1.70;;
16957;SDS011;8595;52.542;11.974;2024-02-23T11:01:34;3.15;;;1.83;;
16957;SDS011;8595;52.542;11.974;2024-02-23T11:04:04;2.08;;;1.85;;
16957;SDS011;8595;52.542;11.974;2024-02-23T11:06:32;5.45;;;2.53;;
16957;SDS011;8595;52.542;11.974;2024-02-23T11:09:06;3.22;;;2.00;;
16957;SDS011;8595;52.542;11.974;2024-02-23T11:11:34;3.08;;;2.20;;
16957;SDS011;8595;52.542;11.974;2024-02-23T11:14:03;2.65;;;1.23;;
16957;SDS011;8595;52.542;11.974;2024-02-23T11:16:37;1.77;;;1.20;;
16957;SDS011;8595;52.542;11.974;2024-02-23T11:19:05;2.33;;;1.33;;
16957;SDS011;8595;52.542;11.974;2024-02-23T11:21:34;3.65;;;1.42;;
16957;SDS011;8595;52.542;11.974;2024-02-23T11:24:02;2.90;;;1.30;;
16957;SDS011;8595;52.542;11.974;2024-02-23T11:26:29;3.22;;;1.40;;
16957;SDS011;8595;52.542;11.974;2024-02-23T11:28:56;2.47;;;1.48;;
16957;SDS011;8595;52.542;11.974;2024-02-23T11:31:29;7.10;;;2.15;;
16957;SDS011;8595;52.542;11.974;2024-02-23T11:33:56;3.53;;;1.38;;
16957;SDS011;8595;52.542;11.974;2024-02-23T11:36:24;2.25;;;1.60;;
16957;SDS011;8595;52.542;11.974;2024-02-23T11:38:53;1.92;;;1.17;;
16957;SDS011;8595;52.542;11.974;2024-02-23T11:41:22;3.47;;;1.60;;
16957;SDS011;8595;52.542;11.974;2024-02-23T11:43:49;2.47;;;1.48;;
16957;SDS011;8595;52.542;11.974;2024-02-23T11:46:16;4.85;;;1.40;;
16957;SDS011;8595;52.542;11.974;2024-02-23T11:48:44;2.15;;;1.30;;
16957;SDS011;8595;52.542;11.974;2024-02-23T11:51:12;2.38;;;1.30;;
16957;SDS011;8595;52.542;11.974;2024-02-23T11:53:39;1.40;;;1.10;;
16957;SDS011;8595;52.542;11.974;2024-02-23T11:56:06;5.07;;;1.20;;
16957;SDS011;8595;52.542;11.974;2024-02-23T11:58:32;3.15;;;1.23;;
16957;SDS011;8595;52.542;11.974;2024-02-23T12:00:59;3.30;;;1.00;;
16957;SDS011;8595;52.542;11.974;2024-02-23T12:03:27;2.28;;;1.25;;
16957;SDS011;8595;52.542;11.974;2024-02-23T12:05:57;3.03;;;1.45;;
16957;SDS011;8595;52.542;11.974;2024-02-23T12:08:25;2.20;;;1.20;;
16957;SDS011;8595;52.542;11.974;2024-02-23T12:10:52;2.45;;;1.23;;
16957;SDS011;8595;52.542;11.974;2024-02-23T12:13:20;2.80;;;1.17;;
16957;SDS011;8595;52.542;11.974;2024-02-23T12:15:47;2.17;;;1.15;;
16957;SDS011;8595;52.542;11.974;2024-02-23T12:18:14;3.00;;;1.02;;
16957;SDS011;8595;52.542;11.974;2024-02-23T12:20:40;1.20;;;1.10;;
16957;SDS011;8595;52.542;11.974;2024-02-23T12:23:08;1.95;;;1.10;;
16957;SDS011;8595;52.542;11.974;2024-02-23T12:25:35;2.55;;;0.90;;
16957;SDS011;8595;52.542;11.974;2024-02-23T12:28:02;2.45;;;0.98;;
16957;SDS011;8595;52.542;11.974;2024-02-23T12:30:29;1.80;;;1.10;;
16957;SDS011;8595;52.542;11.974;2024-02-23T12:33:02;2.58;;;1.33;;
16957;SDS011;8595;52.542;11.974;2024-02-23T12:35:29;2.30;;;1.20;;
16957;SDS011;8595;52.542;11.974;2024-02-23T12:37:56;3.22;;;1.30;;
16957;SDS011;8595;52.542;11.974;2024-02-23T12:40:24;4.80;;;1.20;;
16957;SDS011;8595;52.542;11.974;2024-02-23T12:42:51;2.38;;;1.30;;
16957;SDS011;8595;52.542;11.974;2024-02-23T12:45:18;2.40;;;1.40;;
16957;SDS011;8595;52.542;11.974;2024-02-23T12:47:44;1.35;;;1.13;;
16957;SDS011;8595;52.542;11.974;2024-02-23T12:50:11;2.70;;;1.30;;
16957;SDS011;8595;52.542;11.974;2024-02-23T12:52:38;0.88;;;0.88;;
16957;SDS011;8595;52.542;11.974;2024-02-23T12:55:04;2.35;;;1.27;;
16957;SDS011;8595;52.542;11.974;2024-02-23T12:57:33;1.50;;;1.15;;
16957;SDS011;8595;52.542;11.974;2024-02-23T12:59:59;3.65;;;1.30;;
16957;SDS011;8595;52.542;11.974;2024-02-23T13:02:26;4.85;;;1.73;;
16957;SDS011;8595;52.542;11.974;2024-02-23T13:04:52;2.25;;;1.42;;
16957;SDS011;8595;52.542;11.974;2024-02-23T13:07:19;3.17;;;1.10;;
16957;SDS011;8595;52.542;11.974;2024-02-23T13:09:46;2.65;;;1.73;;
16957;SDS011;8595;52.542;11.974;2024-02-23T13:12:12;3.22;;;1.50;;
16957;SDS011;8595;52.542;11.974;2024-02-23T13:14:40;2.63;;;1.60;;
16957;SDS011;8595;52.542;11.974;2024-02-23T13:17:07;5.90;;;1.83;;
16957;SDS011;8595;52.542;11.974;2024-02-23T13:19:33;3.42;;;1.73;;
16957;SDS011;8595;52.542;11.974;2024-02-23T13:22:00;3.90;;;1.70;;
16957;SDS011;8595;52.542;11.974;2024-02-23T13:24:27;3.75;;;1.70;;
16957;SDS011;8595;52.542;11.974;2024-02-23T13:26:53;2.45;;;1.40;;
16957;SDS011;8595;52.542;11.974;2024-02-23T13:29:20;2.17;;;1.60;;
16957;SDS011;8595;52.542;11.974;2024-02-23T13:31:48;4.45;;;1.75;;
16957;SDS011;8595;52.542;11.974;2024-02-23T13:34:14;2.55;;;1.58;;
16957;SDS011;8595;52.542;11.974;2024-02-23T13:36:42;2.33;;;1.33;;
16957;SDS011;8595;52.542;11.974;2024-02-23T13:39:09;5.20;;;1.55;;
16957;SDS011;8595;52.542;11.974;2024-02-23T13:41:36;4.47;;;1.70;;
16957;SDS011;8595;52.542;11.974;2024-02-23T13:44:03;4.57;;;1.73;;
16957;SDS011;8595;52.542;11.974;2024-02-23T13:46:30;5.47;;;1.70;;
16957;SDS011;8595;52.542;11.974;2024-02-23T13:49:03;2.42;;;1.52;;
16957;SDS011;8595;52.542;11.974;2024-02-23T13:51:30;2.45;;;1.30;;
16957;SDS011;8595;52.542;11.974;2024-02-23T13:53:57;4.25;;;1.80;;
16957;SDS011;8595;52.542;11.974;2024-02-23T13:56:24;3.78;;;1.23;;
16957;SDS011;8595;52.542;11.974;2024-02-23T13:58:50;3.20;;;1.40;;
16957;SDS011;8595;52.542;11.974;2024-02-23T14:01:17;2.33;;;1.42;;
16957;SDS011;8595;52.542;11.974;2024-02-23T14:03:44;4.43;;;1.48;;
16957;SDS011;8595;52.542;11.974;2024-02-23T14:06:12;2.65;;;1.70;;
16957;SDS011;8595;52.542;11.974;2024-02-23T14:08:38;3.55;;;1.52;;
16957;SDS011;8595;52.542;11.974;2024-02-23T14:11:05;2.50;;;1.75;;
16957;SDS011;8595;52.542;11.974;2024-02-23T14:13:32;3.22;;;2.08;;
16957;SDS011;8595;52.542;11.974;2024-02-23T14:15:59;1.98;;;1.60;;
16957;SDS011;8595;52.542;11.974;2024-02-23T14:18:26;5.78;;;1.90;;
16957;SDS011;8595;52.542;11.974;2024-02-23T14:20:53;3.00;;;1.65;;
16957;SDS011;8595;52.542;11.974;2024-02-23T14:23:20;3.83;;;1.77;;
16957;SDS011;8595;52.542;11.974;2024-02-23T14:25:47;3.58;;;1.40;;
16957;SDS011;8595;52.542;11.974;2024-02-23T14:28:16;6.38;;;1.50;;
16957;SDS011;8595;52.542;11.974;2024-02-23T14:30:43;2.55;;;1.83;;
16957;SDS011;8595;52.542;11.974;2024-02-23T14:33:10;5.85;;;1.67;;
16957;SDS011;8595;52.542;11.974;2024-02-23T14:35:36;5.22;;;1.73;;
16957;SDS011;8595;52.542;11.974;2024-02-23T14:38:03;2.97;;;2.10;;
16957;SDS011;8595;52.542;11.974;2024-02-23T14:40:31;4.68;;;2.20;;
16957;SDS011;8595;52.542;11.974;2024-02-23T14:42:58;7.38;;;2.05;;
16957;SDS011;8595;52.542;11.974;2024-02-23T14:45:25;4.28;;;1.70;;
16957;SDS011;8595;52.542;11.974;2024-02-23T14:47:52;2.75;;;1.80;;
16957;SDS011;8595;52.542;11.974;2024-02-23T14:50:19;2.45;;;1.38;;